Station Historical Data
Daily Summary for November 4, 2017 Units:  Metric    English   Both
« Previous Day
Next Day »
Daily Weekly Monthly Yearly Custom
  High: Low: Average:
Temperature: 23.2 °C 14.6 °C 18.1 °C
Dew Point: 19.1 °C 13.5 °C 16.6 °C
Humidity: 94% 74% 91%
Wind Speed: 1.9km/h 0km/h 0.2km/h
Wind Gust: 9.7km/h - -
Wind- - SW
Pressure: 1021.2 hPa 1017.8 hPa -
Precipitation: 17.02 mm    
Historical Graphs
 
 
Tabular Data for November 4, 2017
Time Temperature Dew Point Pressure Wind Wind Speed Wind Gust Humidity Rainfall Rate (Hourly) solar Conditions
00:01 17.2 °C 15.8 °C 1021.2 hPa Calm     92% 0 mm WeatherDisplay:10.37 W/m2 BKN
00:07 16.9 °C 15.6 °C 1021.2 hPa Calm     92% 0 mm WeatherDisplay:10.37 W/m2 BKN
00:12 16.8 °C 15.4 °C 1021.2 hPa Calm     92% 0 mm WeatherDisplay:10.37 W/m2 BKN
00:17 16.7 °C 15.3 °C 1020.9 hPa Calm     92% 0 mm WeatherDisplay:10.37 W/m2 SCT
00:22 16.7 °C 15.3 °C 1020.9 hPa Calm     92% 0 mm WeatherDisplay:10.37 W/m2 SCT
00:27 16.7 °C 15.3 °C 1020.9 hPa Calm     92% 0 mm WeatherDisplay:10.37 W/m2 SCT
00:32 16.6 °C 15.3 °C 1020.9 hPa Calm     92% 0 mm WeatherDisplay:10.37 W/m2 SCT
00:37 16.6 °C 15.3 °C 1020.9 hPa Calm     92% 0 mm WeatherDisplay:10.37 W/m2 SCT
00:42 16.6 °C 15.3 °C 1020.9 hPa Calm     92% 0 mm WeatherDisplay:10.37 W/m2 SCT
00:47 16.5 °C 15.2 °C 1020.9 hPa Calm     92% 0 mm WeatherDisplay:10.37 W/m2 SCT
00:48 16.4 °C 15.2 °C 1020.5 hPa Calm     92% 0 mm WeatherDisplay:10.37 W/m2 SCT
00:53 16.4 °C 15.1 °C 1020.9 hPa Calm     92% 0 mm WeatherDisplay:10.37 W/m2 SCT
00:58 16.3 °C 15.1 °C 1020.5 hPa Calm     92% 0 mm WeatherDisplay:10.37 W/m2 SCT
01:03 16.3 °C 15 °C 1020.5 hPa Calm     92% 0 mm WeatherDisplay:10.37 W/m2 SCT
01:08 16.3 °C 15 °C 1020.5 hPa Calm     92% 0 mm WeatherDisplay:10.37 W/m2 SCT
01:14 16.3 °C 15 °C 1020.5 hPa Calm     92% 0 mm WeatherDisplay:10.37 W/m2 SCT
01:19 16.3 °C 15.2 °C 1020.5 hPa Calm     93% 0 mm WeatherDisplay:10.37 W/m2 SCT
01:21 16.3 °C 15.2 °C 1020.5 hPa Calm     93% 0 mm WeatherDisplay:10.37 W/m2 SCT
01:26 16.3 °C 15.2 °C 1020.5 hPa Calm     93% 0 mm WeatherDisplay:10.37 W/m2 SCT
01:31 16.3 °C 15.2 °C 1020.5 hPa Calm     93% 0 mm WeatherDisplay:10.37 W/m2 SCT
01:36 16.4 °C 15.3 °C 1020.5 hPa Calm     93% 0 mm WeatherDisplay:10.37 W/m2 SCT
01:41 16.5 °C 15.4 °C 1020.5 hPa Calm     93% 0 mm WeatherDisplay:10.37 W/m2 SCT
01:46 16.5 °C 15.4 °C 1020.2 hPa Calm     93% 0 mm WeatherDisplay:10.37 W/m2 SCT
01:51 16.5 °C 15.4 °C 1020.2 hPa Calm     93% 0 mm WeatherDisplay:10.37 W/m2 SCT
01:56 16.5 °C 15.4 °C 1020.2 hPa Calm     93% 0 mm WeatherDisplay:10.37 W/m2 SCT
02:01 16.4 °C 15.3 °C 1020.2 hPa Calm     93% 0 mm WeatherDisplay:10.37 W/m2 SCT
02:06 16.4 °C 15.3 °C 1020.2 hPa Calm     93% 0 mm WeatherDisplay:10.37 W/m2 SCT
02:11 16.4 °C 15.3 °C 1019.9 hPa Calm     93% 0 mm WeatherDisplay:10.37 W/m2 BKN
02:16 16.3 °C 15.2 °C 1019.9 hPa Calm     93% 0 mm WeatherDisplay:10.37 W/m2 BKN
02:21 16.3 °C 15.2 °C 1019.9 hPa Calm     93% 0 mm WeatherDisplay:10.37 W/m2 BKN
02:26 16.3 °C 15.2 °C 1019.9 hPa Calm     93% 0 mm WeatherDisplay:10.37 W/m2 BKN
02:31 16.2 °C 15.1 °C 1019.5 hPa Calm     93% 0 mm WeatherDisplay:10.37 W/m2 BKN
02:36 16.2 °C 15.1 °C 1019.5 hPa Calm     93% 0 mm WeatherDisplay:10.37 W/m2 BKN
02:41 16.2 °C 15.1 °C 1019.5 hPa Calm     93% 0 mm WeatherDisplay:10.37 W/m2 BKN
02:46 16.2 °C 15.1 °C 1019.5 hPa Calm     93% 0 mm WeatherDisplay:10.37 W/m2 BKN
02:51 16.2 °C 15.1 °C 1019.5 hPa Calm     93% 0 mm WeatherDisplay:10.37 W/m2 BKN
02:56 16.2 °C 15.1 °C 1019.5 hPa Calm     93% 0 mm WeatherDisplay:10.37 W/m2 BKN
03:01 16.2 °C 15.1 °C 1019.9 hPa Calm     93% 0 mm WeatherDisplay:10.37 W/m2 BKN
03:06 16.3 °C 15.2 °C 1019.5 hPa Calm     93% 0 mm WeatherDisplay:10.37 W/m2 BKN
03:11 16.2 °C 15.1 °C 1019.5 hPa Calm     93% 0 mm WeatherDisplay:10.37 W/m2 BKN
03:16 16.1 °C 15 °C 1019.5 hPa Calm     93% 0 mm WeatherDisplay:10.37 W/m2 BKN
03:21 16.1 °C 14.9 °C 1019.5 hPa Calm     93% 0 mm WeatherDisplay:10.37 W/m2 BKN
03:27 16.2 °C 15.1 °C 1019.5 hPa Calm     93% 0 mm WeatherDisplay:10.37 W/m2 BKN
03:32 16.1 °C 15 °C 1019.5 hPa Calm     93% 0 mm WeatherDisplay:10.37 W/m2 SCT
03:37 16.1 °C 15 °C 1019.5 hPa Calm     93% 0 mm WeatherDisplay:10.37 W/m2 SCT
03:42 16.1 °C 15 °C 1019.5 hPa Calm     93% 0 mm WeatherDisplay:10.37 W/m2 SCT
03:47 16.1 °C 14.9 °C 1019.5 hPa Calm     93% 0 mm WeatherDisplay:10.37 W/m2 SCT
03:52 16 °C 14.9 °C 1019.5 hPa Calm     93% 0 mm WeatherDisplay:10.37 W/m2 SCT
03:57 15.9 °C 14.8 °C 1019.5 hPa Calm     93% 0 mm WeatherDisplay:10.37 W/m2 SCT
04:02 15.9 °C 14.8 °C 1019.5 hPa Calm     93% 0 mm WeatherDisplay:10.37 W/m2 SCT
04:07 15.8 °C 14.7 °C 1019.5 hPa Calm     93% 0 mm WeatherDisplay:10.37 W/m2 SCT
04:12 15.7 °C 14.6 °C 1019.2 hPa Calm     93% 0 mm WeatherDisplay:10.37 W/m2 BKN
04:17 15.7 °C 14.6 °C 1019.2 hPa Calm     93% 0 mm WeatherDisplay:10.37 W/m2 BKN
04:22 15.8 °C 14.7 °C 1019.2 hPa Calm     93% 0 mm WeatherDisplay:10.37 W/m2 BKN
04:27 15.8 °C 14.7 °C 1019.5 hPa Calm     93% 0 mm WeatherDisplay:10.37 W/m2 BKN
04:32 15.7 °C 14.6 °C 1019.5 hPa Calm     93% 0 mm WeatherDisplay:10.37 W/m2 BKN
04:37 15.7 °C 14.6 °C 1019.5 hPa Calm     93% 0 mm WeatherDisplay:10.37 W/m2 BKN
04:42 15.8 °C 14.7 °C 1019.5 hPa Calm     93% 0 mm WeatherDisplay:10.37 W/m2 FEW
04:47 15.7 °C 14.6 °C 1019.5 hPa Calm     93% 0 mm WeatherDisplay:10.37 W/m2 FEW
04:52 15.6 °C 14.5 °C 1019.5 hPa Calm     93% 0 mm WeatherDisplay:10.37 W/m2 FEW
04:58 15.5 °C 14.4 °C 1019.5 hPa Calm     93% 0 mm WeatherDisplay:10.37 W/m2 FEW
05:03 15.5 °C 14.4 °C 1019.5 hPa Calm     93% 0 mm WeatherDisplay:10.37 W/m2 FEW
05:08 15.5 °C 14.4 °C 1019.5 hPa Calm     93% 0 mm WeatherDisplay:10.37 W/m2 FEW
05:13 15.6 °C 14.4 °C 1019.5 hPa Calm     93% 0 mm WeatherDisplay:10.37 W/m2 SCT
05:18 15.6 °C 14.4 °C 1019.5 hPa Calm     93% 0 mm WeatherDisplay:10.37 W/m2 SCT
05:23 15.6 °C 14.4 °C 1019.5 hPa Calm     93% 0 mm WeatherDisplay:10.37 W/m2 SCT
05:28 15.6 °C 14.5 °C 1019.9 hPa Calm     93% 0 mm WeatherDisplay:10.37 W/m2 SCT
05:33 15.6 °C 14.5 °C 1019.9 hPa Calm     93% 0 mm WeatherDisplay:10.37 W/m2 BKN
05:38 15.6 °C 14.5 °C 1019.9 hPa Calm     93% 0 mm WeatherDisplay:10.37 W/m2 BKN
05:43 15.6 °C 14.5 °C 1019.9 hPa Calm     93% 0 mm WeatherDisplay:10.37 W/m2 BKN
05:48 15.6 °C 14.5 °C 1019.9 hPa Calm     93% 0 mm WeatherDisplay:10.37 W/m2 BKN
05:53 15.7 °C 14.6 °C 1019.9 hPa Calm     93% 0 mm WeatherDisplay:10.37 W/m2 BKN
05:58 15.6 °C 14.5 °C 1019.9 hPa Calm     93% 0 mm WeatherDisplay:10.37 W/m2 BKN
06:03 15.6 °C 14.4 °C 1019.9 hPa Calm     93% 0 mm WeatherDisplay:10.37 W/m2 BKN
06:13 15.6 °C 14.4 °C 1019.9 hPa Calm     93% 0 mm WeatherDisplay:10.37 W/m2 FEW
06:18 15.5 °C 14.4 °C 1019.9 hPa Calm     93% 0 mm WeatherDisplay:10.37 W/m2 FEW
06:23 15.4 °C 14.3 °C 1019.9 hPa Calm     93% 0 mm WeatherDisplay:10.37 W/m2 FEW
06:28 15.4 °C 14.3 °C 1020.2 hPa Calm     93% 0 mm WeatherDisplay:10.37 W/m2 FEW
06:33 15.3 °C 14.2 °C 1020.2 hPa Calm     93% 0 mm WeatherDisplay:10.37 W/m2 FEW
06:38 15.3 °C 14.2 °C 1019.9 hPa Calm     93% 0 mm WeatherDisplay:10.37 W/m2 FEW
06:43 15.2 °C 14.1 °C 1020.2 hPa Calm     93% 0 mm WeatherDisplay:10.37 W/m2 FEW
06:48 15.2 °C 14.1 °C 1020.2 hPa Calm     93% 0 mm WeatherDisplay:10.37 W/m2 FEW
06:54 15.1 °C 14 °C 1020.2 hPa Calm     93% 0 mm WeatherDisplay:10.37 W/m2 FEW
06:59 15.1 °C 13.9 °C 1020.2 hPa Calm     93% 0 mm WeatherDisplay:10.37 W/m2 FEW
07:04 15.1 °C 13.9 °C 1020.2 hPa Calm     93% 0 mm WeatherDisplay:10.37 W/m2 FEW
07:09 15 °C 13.9 °C 1020.2 hPa Calm     93% 0 mm WeatherDisplay:10.37 W/m2 FEW
07:14 14.9 °C 13.8 °C 1020.2 hPa Calm     93% 0 mm WeatherDisplay:10.37 W/m2 BKN
07:19 14.9 °C 13.8 °C 1020.2 hPa Calm     93% 0 mm WeatherDisplay:10.37 W/m2 BKN
07:24 15 °C 13.9 °C 1020.2 hPa Calm     93% 0 mm WeatherDisplay:10.37 W/m2 BKN
07:29 15 °C 13.9 °C 1020.2 hPa Calm     93% 0 mm WeatherDisplay:10.37 W/m2 BKN
07:31 14.9 °C 13.8 °C 1020.5 hPa Calm     93% 0 mm WeatherDisplay:10.37 W/m2 BKN
07:36 14.9 °C 13.8 °C 1020.5 hPa Calm     93% 0 mm WeatherDisplay:10.37 W/m2 BKN
07:41 14.8 °C 13.7 °C 1020.5 hPa Calm     93% 0 mm WeatherDisplay:10.37 W/m2 BKN
07:46 14.8 °C 13.7 °C 1020.5 hPa Calm     93% 0 mm WeatherDisplay:10.37 W/m2 BKN
07:51 14.8 °C 13.7 °C 1020.5 hPa Calm     93% 0 mm WeatherDisplay:10.37 W/m2 BKN
07:56 14.7 °C 13.6 °C 1020.5 hPa Calm     93% 0 mm WeatherDisplay:10.37 W/m2 BKN
08:01 14.7 °C 13.6 °C 1020.5 hPa Calm     93% 0 mm WeatherDisplay:10.37 W/m2 BKN
08:06 14.7 °C 13.6 °C 1020.5 hPa Calm     93% 0 mm WeatherDisplay:10.37 W/m2 BKN
08:11 14.6 °C 13.5 °C 1020.5 hPa Calm     93% 0 mm WeatherDisplay:10.37 W/m2 SCT
08:16 14.7 °C 13.6 °C 1020.5 hPa Calm     93% 0 mm WeatherDisplay:10.37 W/m2 SCT
08:21 14.7 °C 13.8 °C 1020.5 hPa Calm     94% 0 mm WeatherDisplay:10.37 W/m2 SCT
08:26 14.7 °C 13.8 °C 1020.9 hPa Calm     94% 0 mm WeatherDisplay:10.37 W/m2 SCT
08:31 14.8 °C 13.8 °C 1020.9 hPa Calm     94% 0 mm WeatherDisplay:10.37 W/m2 SCT
08:36 14.8 °C 13.8 °C 1020.9 hPa Calm     94% 0 mm WeatherDisplay:10.37 W/m2 SCT
08:41 14.8 °C 13.8 °C 1020.9 hPa Calm     94% 0 mm WeatherDisplay:10.37 W/m2 SCT
08:46 14.9 °C 13.9 °C 1020.9 hPa Calm     94% 0 mm WeatherDisplay:10.37 W/m2 SCT
08:51 14.9 °C 14 °C 1020.9 hPa Calm     94% 0 mm WeatherDisplay:10.37 W/m2 SCT
08:56 15 °C 14.1 °C 1020.9 hPa Calm     94% 0 mm WeatherDisplay:10.37 W/m2 SCT
09:01 15.1 °C 14.1 °C 1021.2 hPa Calm     94% 0 mm WeatherDisplay:10.37 W/m2 BKN
09:07 15.1 °C 14.2 °C 1020.9 hPa Calm     94% 0 mm WeatherDisplay:10.37 W/m2 BKN
09:12 15.3 °C 14.3 °C 1021.2 hPa Calm     94% 0 mm WeatherDisplay:10.37 W/m2 BKN
09:17 15.6 °C 14.7 °C 1021.2 hPa Calm     94% 0 mm WeatherDisplay:10.37 W/m2 BKN
09:22 15.8 °C 14.9 °C 1021.2 hPa Calm     94% 0 mm WeatherDisplay:10.37 W/m2 BKN
09:27 16 °C 15.1 °C 1021.2 hPa Calm     94% 0 mm WeatherDisplay:10.37 W/m2 BKN
09:32 16.1 °C 15.2 °C 1021.2 hPa Calm     94% 0 mm WeatherDisplay:10.37 W/m2 BKN
09:37 16.3 °C 15.4 °C 1021.2 hPa Calm     94% 0 mm WeatherDisplay:10.37 W/m2 BKN
09:42 16.6 °C 15.6 °C 1021.2 hPa Calm     94% 0 mm WeatherDisplay:10.37 W/m2 SCT
09:47 16.9 °C 15.9 °C 1021.2 hPa Calm     94% 0 mm WeatherDisplay:10.37 W/m2 SCT
09:52 17.1 °C 16.1 °C 1021.2 hPa Calm     94% 0 mm WeatherDisplay:10.37 W/m2 SCT
09:57 17.6 °C 16.6 °C 1021.2 hPa Calm     94% 0 mm WeatherDisplay:10.37 W/m2 SCT
10:02 17.9 °C 16.9 °C 1020.9 hPa Calm     94% 0 mm WeatherDisplay:10.37 W/m2 SCT
10:07 18.2 °C 17.2 °C 1020.9 hPa Calm     94% 0 mm WeatherDisplay:10.37 W/m2 SCT
10:12 18.3 °C 17.3 °C 1021.2 hPa Calm     94% 0 mm WeatherDisplay:10.37 W/m2 SCT
10:17 18.6 °C 17.4 °C 1021.2 hPa Calm     93% 0 mm WeatherDisplay:10.37 W/m2 SCT
10:22 18.9 °C 17.6 °C 1021.2 hPa Calm     92% 0 mm WeatherDisplay:10.37 W/m2 SCT
10:27 19.1 °C 17.6 °C 1020.9 hPa Calm     91% 0 mm WeatherDisplay:10.37 W/m2 SCT
10:32 19.2 °C 17.6 °C 1020.9 hPa Calm     90% 0 mm WeatherDisplay:10.37 W/m2 SCT
10:37 19.4 °C 17.6 °C 1020.9 hPa West 1.9 km/h   89% 0 mm WeatherDisplay:10.37 W/m2 SCT
10:42 19.6 °C 17.7 °C 1020.9 hPa Calm     89% 0 mm WeatherDisplay:10.37 W/m2 SCT
10:47 19.8 °C 17.9 °C 1020.9 hPa WNW 1.9 km/h   89% 0 mm WeatherDisplay:10.37 W/m2 SCT
10:52 19.9 °C 18.1 °C 1020.9 hPa Calm     89% 0 mm WeatherDisplay:10.37 W/m2 SCT
10:57 20.1 °C 17.8 °C 1020.9 hPa Calm     87% 0 mm WeatherDisplay:10.37 W/m2 SCT
11:02 20.4 °C 18 °C 1020.9 hPa WNW 1.9 km/h   86% 0 mm WeatherDisplay:10.37 W/m2 SCT
11:07 21.1 °C 18.2 °C 1020.9 hPa WNW 1.6 km/h 1.6 km/h 84% 0 mm WeatherDisplay:10.37 W/m2 SCT
11:12 21.5 °C 18.3 °C 1020.9 hPa Calm     82% 0 mm WeatherDisplay:10.37 W/m2 SCT
11:17 21.8 °C 18.6 °C 1020.9 hPa Calm     82% 0 mm WeatherDisplay:10.37 W/m2 SCT
11:22 21.8 °C 18.4 °C 1020.9 hPa West 1.9 km/h   81% 0 mm WeatherDisplay:10.37 W/m2 SCT
11:27 22.1 °C 18.7 °C 1020.9 hPa East 1.9 km/h   81% 0 mm WeatherDisplay:10.37 W/m2 SCT
11:31 22.2 °C 18.3 °C 1020.9 hPa West 1.9 km/h 1.9 km/h 79% 0 mm WeatherDisplay:10.37 W/m2 SCT
11:36 22.2 °C 18.6 °C 1020.9 hPa West 1.9 km/h   80% 0 mm WeatherDisplay:10.37 W/m2 SCT
11:41 22.3 °C 18.7 °C 1020.9 hPa WNW 1.9 km/h 1.9 km/h 80% 0 mm WeatherDisplay:10.37 W/m2 SCT
11:46 22.2 °C 18.4 °C 1020.9 hPa WNW 1.9 km/h 1.9 km/h 79% 0 mm WeatherDisplay:10.37 W/m2 SCT
11:51 22.2 °C 18.8 °C 1020.9 hPa SW 1.9 km/h 1.9 km/h 81% 0 mm WeatherDisplay:10.37 W/m2 SCT
11:56 22.2 °C 18.4 °C 1020.9 hPa Calm     79% 0 mm WeatherDisplay:10.37 W/m2 SCT
12:01 22.2 °C 18.6 °C 1020.9 hPa Calm     80% 0 mm WeatherDisplay:10.37 W/m2 SCT
12:06 22.2 °C 18.6 °C 1020.9 hPa Calm     80% 0 mm WeatherDisplay:10.37 W/m2 SCT
12:11 22.2 °C 18.8 °C 1020.5 hPa Calm     81% 0 mm WeatherDisplay:10.37 W/m2 SCT
12:16 22.3 °C 18.7 °C 1020.5 hPa Calm     80% 0 mm WeatherDisplay:10.37 W/m2 SCT
12:21 22.4 °C 18.6 °C 1020.5 hPa SW 1.6 km/h 1.6 km/h 79% 0 mm WeatherDisplay:10.37 W/m2 SCT
12:22 22.4 °C 18.6 °C 1020.5 hPa SW 1.9 km/h 1.9 km/h 79% 0 mm WeatherDisplay:10.37 W/m2 SCT
12:27 22.4 °C 18.8 °C 1020.5 hPa Calm     80% 0 mm WeatherDisplay:10.37 W/m2 SCT
12:32 22.5 °C 19.1 °C 1020.5 hPa SW 1.9 km/h   81% 0 mm WeatherDisplay:10.37 W/m2 SCT
12:37 22.4 °C 18.9 °C 1020.5 hPa NW 1.9 km/h   81% 0 mm WeatherDisplay:10.37 W/m2 SCT
12:42 22.3 °C 18.8 °C 1020.5 hPa NNE 1.9 km/h 1.9 km/h 81% 0 mm WeatherDisplay:10.37 W/m2 SCT
12:47 22.2 °C 18.9 °C 1020.2 hPa Calm     82% 0 mm WeatherDisplay:10.37 W/m2 SCT
12:52 22.1 °C 18.9 °C 1020.2 hPa Calm     82% 0 mm WeatherDisplay:10.37 W/m2 BKN
12:57 22.1 °C 18.8 °C 1020.2 hPa Calm     82% 0 mm WeatherDisplay:10.37 W/m2 BKN
13:02 21.9 °C 18.7 °C 1019.9 hPa Calm     82% 0 mm WeatherDisplay:10.37 W/m2 BKN
13:07 21.8 °C 18.8 °C 1019.9 hPa Calm     83% 0 mm WeatherDisplay:10.37 W/m2 BKN
13:12 21.7 °C 18.8 °C 1019.9 hPa Calm     84% 0 mm WeatherDisplay:10.37 W/m2 BKN
13:17 21.6 °C 18.8 °C 1019.5 hPa Calm     84% 0 mm WeatherDisplay:10.37 W/m2 BKN
13:22 21.6 °C 18.7 °C 1019.5 hPa Calm     84% 0 mm WeatherDisplay:10.37 W/m2 BKN
13:28 21.5 °C 18.7 °C 1019.5 hPa Calm     84% 0 mm WeatherDisplay:10.37 W/m2 BKN
13:33 21.5 °C 18.7 °C 1019.5 hPa Calm     84% 0 mm WeatherDisplay:10.37 W/m2 BKN
13:34 21.4 °C 18.6 °C 1019.5 hPa Calm     84% 0 mm WeatherDisplay:10.37 W/m2 BKN
13:39 21.5 °C 18.9 °C 1019.2 hPa Calm     85% 0 mm WeatherDisplay:10.37 W/m2 BKN
13:44 21.7 °C 18.5 °C 1019.2 hPa Calm     82% 0 mm WeatherDisplay:10.37 W/m2 BKN
13:49 21.8 °C 18.6 °C 1019.2 hPa Calm     82% 0 mm WeatherDisplay:10.37 W/m2 BKN
13:54 21.9 °C 18.5 °C 1019.2 hPa Calm     81% 0 mm WeatherDisplay:10.37 W/m2 BKN
13:59 22.1 °C 18.9 °C 1019.2 hPa Calm     82% 0 mm WeatherDisplay:10.37 W/m2 BKN
14:04 22.3 °C 18.9 °C 1019.2 hPa ESE 1.6 km/h 1.6 km/h 81% 0 mm WeatherDisplay:10.37 W/m2 BKN
14:09 22.4 °C 18.8 °C 1018.8 hPa Calm   0.2 km/h 80% 0 mm WeatherDisplay:10.37 W/m2 BKN
14:14 22.6 °C 18.9 °C 1018.8 hPa NW 1.9 km/h   80% 0 mm WeatherDisplay:10.37 W/m2 BKN
14:20 22.7 °C 18.8 °C 1018.8 hPa Calm   1.6 km/h 79% 0 mm WeatherDisplay:10.37 W/m2 BKN
14:25 22.9 °C 18.9 °C 1018.8 hPa East 1.6 km/h 8 km/h 78% 0 mm WeatherDisplay:10.37 W/m2 BKN
14:30 23.2 °C 18.7 °C 1018.8 hPa Calm   3.2 km/h 76% 0 mm WeatherDisplay:10.37 W/m2 BKN
14:35 22.9 °C 18.1 °C 1018.8 hPa SE 1.6 km/h 9.7 km/h 74% 0 mm WeatherDisplay:10.37 W/m2 BKN
14:40 22.1 °C 17.8 °C 1018.8 hPa West 1.9 km/h   77% 1.02 mm WeatherDisplay:10.37 W/m2 RA
14:45 21.1 °C 17.7 °C 1018.8 hPa WNW 1.6 km/h 3.2 km/h 81% 1.02 mm WeatherDisplay:10.37 W/m2 RA
14:50 19.9 °C 17.2 °C 1018.8 hPa Calm   1.6 km/h 84% 7.37 mm WeatherDisplay:10.37 W/m2 RA
14:55 19.4 °C 17.2 °C 1018.5 hPa Calm     87% 0 mm WeatherDisplay:10.37 W/m2 RA
15:00 19.2 °C 17.3 °C 1018.5 hPa Calm   1.6 km/h 89% 0 mm WeatherDisplay:10.37 W/m2 BKN
15:05 19.1 °C 17.4 °C 1018.5 hPa Calm   1.6 km/h 90% 0.25 mm WeatherDisplay:10.37 W/m2 -DZ
15:10 19 °C 17.5 °C 1018.5 hPa Calm     91% 0 mm WeatherDisplay:10.37 W/m2 -DZ
15:15 19 °C 17.5 °C 1018.5 hPa Calm     91% 0 mm WeatherDisplay:10.37 W/m2 -DZ
15:20 18.9 °C 17.4 °C 1018.5 hPa Calm     91% 0 mm WeatherDisplay:10.37 W/m2 -DZ
15:25 19 °C 17.7 °C 1018.5 hPa Calm     92% 10.92 mm WeatherDisplay:10.37 W/m2 -DZ
15:30 19 °C 17.7 °C 1018.5 hPa Calm     92% 10.92 mm WeatherDisplay:10.37 W/m2 -DZ
15:35 19 °C 17.7 °C 1018.5 hPa Calm     92% 11.18 mm WeatherDisplay:10.37 W/m2 -DZ
15:40 18.9 °C 17.6 °C 1018.5 hPa Calm     92% 9.65 mm WeatherDisplay:10.37 W/m2 -DZ
15:45 18.9 °C 17.6 °C 1018.5 hPa Calm     92% 5.08 mm WeatherDisplay:10.37 W/m2 -DZ
15:50 19.1 °C 17.7 °C 1018.2 hPa Calm     92% 2.29 mm WeatherDisplay:10.37 W/m2 -DZ
15:55 19.2 °C 18 °C 1018.2 hPa Calm     93% 1.52 mm WeatherDisplay:10.37 W/m2 -DZ
16:00 19.3 °C 18.1 °C 1018.2 hPa Calm     93% 1.52 mm WeatherDisplay:10.37 W/m2 -DZ
16:05 19.3 °C 18.2 °C 1018.2 hPa Calm     93% 1.52 mm WeatherDisplay:10.37 W/m2 BKN
16:10 19.6 °C 18.4 °C 1018.2 hPa Calm     93% 1.52 mm WeatherDisplay:10.37 W/m2 BKN
16:15 19.9 °C 18.7 °C 1018.2 hPa Calm     93% 1.02 mm WeatherDisplay:10.37 W/m2 BKN
16:20 20.1 °C 18.9 °C 1018.2 hPa Calm     93% 0.76 mm WeatherDisplay:10.37 W/m2 BKN
16:25 20.1 °C 18.9 °C 1018.2 hPa Calm     93% 0.51 mm WeatherDisplay:10.37 W/m2 BKN
16:30 20.2 °C 19.1 °C 1018.2 hPa Calm     93% 0.51 mm WeatherDisplay:10.37 W/m2 BKN
16:35 20.3 °C 19.1 °C 1018.2 hPa Calm     93% 0.25 mm WeatherDisplay:10.37 W/m2 BKN
16:40 20.3 °C 19.1 °C 1018.2 hPa Calm     93% 0.25 mm WeatherDisplay:10.37 W/m2 BKN
16:45 20.2 °C 19.1 °C 1017.8 hPa Calm     93% 0.25 mm WeatherDisplay:10.37 W/m2 BKN
16:50 20.3 °C 19.1 °C 1018.2 hPa Calm     93% 0.25 mm WeatherDisplay:10.37 W/m2 BKN
16:55 20.3 °C 19.1 °C 1018.2 hPa Calm     93% 0.25 mm WeatherDisplay:10.37 W/m2 BKN
17:01 20.3 °C 19.1 °C 1018.2 hPa Calm     93% 0 mm WeatherDisplay:10.37 W/m2 BKN
17:06 20.2 °C 18.9 °C 1018.2 hPa Calm     92% 0 mm WeatherDisplay:10.37 W/m2 BKN
17:11 20.2 °C 19.1 °C 1018.2 hPa Calm     93% 0 mm WeatherDisplay:10.37 W/m2 BKN
17:16 20.2 °C 18.8 °C 1018.2 hPa Calm     92% 0 mm WeatherDisplay:10.37 W/m2 BKN
17:21 20.1 °C 18.8 °C 1018.2 hPa Calm     92% 0 mm WeatherDisplay:10.37 W/m2 BKN
17:26 20.1 °C 18.7 °C 1018.2 hPa Calm     92% 0 mm WeatherDisplay:10.37 W/m2 BKN
17:31 20 °C 18.7 °C 1018.5 hPa Calm     92% 0 mm WeatherDisplay:10.37 W/m2 BKN
17:36 19.9 °C 18.8 °C 1018.5 hPa Calm     93% 0 mm WeatherDisplay:10.37 W/m2 BKN
17:41 19.9 °C 18.7 °C 1018.5 hPa Calm     93% 0 mm WeatherDisplay:10.37 W/m2 BKN
17:46 19.9 °C 18.7 °C 1018.5 hPa Calm     93% 0 mm WeatherDisplay:10.37 W/m2 BKN
17:51 19.8 °C 18.7 °C 1018.8 hPa NNW 1.9 km/h   93% 0 mm WeatherDisplay:10.37 W/m2 BKN
17:56 19.7 °C 18.6 °C 1018.8 hPa North 1.6 km/h   93% 0 mm WeatherDisplay:10.37 W/m2 BKN
18:01 19.7 °C 18.6 °C 1018.8 hPa Calm     93% 0 mm WeatherDisplay:10.37 W/m2 -RA
18:06 19.7 °C 18.5 °C 1018.8 hPa Calm     93% 0 mm WeatherDisplay:10.37 W/m2 -RA
18:11 19.6 °C 18.4 °C 1018.8 hPa Calm     93% 2.03 mm WeatherDisplay:10.37 W/m2 -RA
18:16 19.6 °C 18.4 °C 1018.8 hPa Calm     93% 3.3 mm WeatherDisplay:10.37 W/m2 -RA
18:21 19.5 °C 18.3 °C 1018.8 hPa Calm     93% 3.81 mm WeatherDisplay:10.37 W/m2 -RA
18:26 19.4 °C 18.2 °C 1018.8 hPa Calm     93% 4.06 mm WeatherDisplay:10.37 W/m2 -RA
18:31 19.3 °C 18.2 °C 1018.8 hPa Calm     93% 4.32 mm WeatherDisplay:10.37 W/m2 -RA
18:36 19.3 °C 18.1 °C 1018.8 hPa Calm     93% 4.83 mm WeatherDisplay:10.37 W/m2 -RA
18:41 19.2 °C 18.1 °C 1018.5 hPa Calm     93% 4.83 mm WeatherDisplay:10.37 W/m2 -RA
18:47 19.2 °C 18 °C 1018.5 hPa Calm     93% 5.08 mm WeatherDisplay:10.37 W/m2 -RA
18:52 19.1 °C 17.9 °C 1018.5 hPa Calm     93% 5.33 mm WeatherDisplay:10.37 W/m2 BKN
18:57 19.1 °C 17.9 °C 1018.5 hPa Calm     93% 5.33 mm WeatherDisplay:10.37 W/m2 BKN
19:02 19 °C 17.8 °C 1018.5 hPa Calm     93% 5.33 mm WeatherDisplay:10.37 W/m2 BKN
19:07 19 °C 17.8 °C 1018.5 hPa Calm     93% 5.33 mm WeatherDisplay:10.37 W/m2 BKN
19:12 18.9 °C 17.8 °C 1018.8 hPa Calm     93% 3.3 mm WeatherDisplay:10.37 W/m2 BKN
19:17 18.9 °C 17.7 °C 1018.5 hPa Calm     93% 2.03 mm WeatherDisplay:10.37 W/m2 BKN
19:22 18.8 °C 17.6 °C 1018.8 hPa Calm     93% 1.52 mm WeatherDisplay:10.37 W/m2 BKN
19:27 18.7 °C 17.6 °C 1018.5 hPa Calm     93% 1.27 mm WeatherDisplay:10.37 W/m2 BKN
19:32 18.7 °C 17.5 °C 1018.8 hPa Calm     93% 1.02 mm WeatherDisplay:10.37 W/m2 BKN
19:37 18.6 °C 17.4 °C 1018.8 hPa Calm     93% 0.51 mm WeatherDisplay:10.37 W/m2 BKN
19:42 18.4 °C 17.3 °C 1018.8 hPa Calm     93% 0.51 mm WeatherDisplay:10.37 W/m2 BKN
19:47 18.4 °C 17.3 °C 1018.8 hPa Calm     93% 0.25 mm WeatherDisplay:10.37 W/m2 BKN
19:52 18.4 °C 17.2 °C 1018.8 hPa Calm     93% 0 mm WeatherDisplay:10.37 W/m2 BKN
19:57 18.4 °C 17.2 °C 1019.2 hPa Calm     93% 0 mm WeatherDisplay:10.37 W/m2 BKN
20:02 18.4 °C 17.2 °C 1019.2 hPa Calm     93% 0 mm WeatherDisplay:10.37 W/m2 BKN
20:07 18.4 °C 17.2 °C 1019.2 hPa Calm     93% 0 mm WeatherDisplay:10.37 W/m2 BKN
20:12 18.3 °C 17.2 °C 1019.2 hPa Calm     93% 0 mm WeatherDisplay:10.37 W/m2 BKN
20:17 18.3 °C 17.1 °C 1019.2 hPa Calm     93% 0 mm WeatherDisplay:10.37 W/m2 BKN
20:22 18.2 °C 17.1 °C 1019.2 hPa Calm     93% 0 mm WeatherDisplay:10.37 W/m2 FOG
20:28 18.2 °C 17 °C 1019.2 hPa Calm     93% 0 mm WeatherDisplay:10.37 W/m2 FOG
20:33 18.2 °C 17 °C 1019.2 hPa Calm     93% 0 mm WeatherDisplay:10.37 W/m2 FOG
20:38 18.2 °C 17 °C 1019.2 hPa Calm     93% 0 mm WeatherDisplay:10.37 W/m2 FOG
20:43 18.1 °C 16.9 °C 1019.2 hPa Calm     93% 0 mm WeatherDisplay:10.37 W/m2 FOG
20:48 18.1 °C 16.9 °C 1019.2 hPa Calm     93% 0 mm WeatherDisplay:10.37 W/m2 FOG
20:53 18.1 °C 17.1 °C 1019.2 hPa Calm     94% 0 mm WeatherDisplay:10.37 W/m2 SCT
20:58 18 °C 17 °C 1019.2 hPa Calm     94% 0 mm WeatherDisplay:10.37 W/m2 SCT
21:03 18 °C 17 °C 1019.2 hPa Calm     94% 0 mm WeatherDisplay:10.37 W/m2 BKN
21:08 17.9 °C 16.9 °C 1019.2 hPa Calm     94% 0 mm WeatherDisplay:10.37 W/m2 BKN
21:13 17.9 °C 16.9 °C 1019.2 hPa Calm     94% 0 mm WeatherDisplay:10.37 W/m2 BKN
21:18 17.9 °C 16.9 °C 1019.2 hPa Calm     94% 0 mm WeatherDisplay:10.37 W/m2 BKN
21:23 17.9 °C 16.9 °C 1019.2 hPa Calm     94% 0 mm WeatherDisplay:10.37 W/m2 BKN
21:28 17.9 °C 16.9 °C 1019.2 hPa Calm     94% 0 mm WeatherDisplay:10.37 W/m2 BKN
21:33 17.9 °C 16.9 °C 1019.5 hPa Calm     94% 0 mm WeatherDisplay:10.37 W/m2 BKN
21:39 18 °C 17 °C 1019.5 hPa Calm     94% 0 mm WeatherDisplay:10.37 W/m2 BKN
21:44 18.1 °C 17.1 °C 1019.5 hPa Calm     94% 0 mm WeatherDisplay:10.37 W/m2 BKN
21:49 18.1 °C 17.1 °C 1019.5 hPa Calm     94% 0 mm WeatherDisplay:10.37 W/m2 BKN
21:54 18.1 °C 17.1 °C 1019.5 hPa Calm     94% 0.25 mm WeatherDisplay:10.37 W/m2 RA
21:59 18.2 °C 17.2 °C 1019.5 hPa Calm     94% 0.25 mm WeatherDisplay:10.37 W/m2 BKN
22:04 18.2 °C 17.2 °C 1019.5 hPa Calm     94% 0.25 mm WeatherDisplay:10.37 W/m2 BKN
22:09 18.2 °C 17.2 °C 1019.2 hPa Calm     94% 0.25 mm WeatherDisplay:10.37 W/m2 BKN
22:14 18.2 °C 17.2 °C 1019.2 hPa Calm     94% 0.25 mm WeatherDisplay:10.37 W/m2 BKN
22:19 18.1 °C 17.1 °C 1019.5 hPa Calm     94% 0.25 mm WeatherDisplay:10.37 W/m2 BKN
22:24 18.1 °C 17.1 °C 1019.5 hPa Calm     94% 0.25 mm WeatherDisplay:10.37 W/m2 BKN
22:29 18.1 °C 17.1 °C 1019.2 hPa Calm     94% 0.25 mm WeatherDisplay:10.37 W/m2 BKN
22:34 18 °C 17 °C 1019.2 hPa Calm     94% 0.25 mm WeatherDisplay:10.37 W/m2 BKN
22:39 18 °C 17 °C 1019.5 hPa Calm     94% 0.25 mm WeatherDisplay:10.37 W/m2 BKN
22:44 18 °C 17 °C 1019.2 hPa Calm     94% 0.25 mm WeatherDisplay:10.37 W/m2 BKN
22:49 17.9 °C 16.9 °C 1019.2 hPa Calm     94% 0.25 mm WeatherDisplay:10.37 W/m2 BKN
22:54 17.9 °C 16.9 °C 1019.2 hPa Calm     94% 0 mm WeatherDisplay:10.37 W/m2 BKN
22:59 17.9 °C 16.9 °C 1019.5 hPa Calm     94% 0 mm WeatherDisplay:10.37 W/m2 BKN
23:04 17.9 °C 16.9 °C 1019.5 hPa Calm     94% 0 mm WeatherDisplay:10.37 W/m2 BKN
23:09 17.9 °C 16.9 °C 1019.9 hPa Calm     94% 0 mm WeatherDisplay:10.37 W/m2 BKN
23:15 18 °C 17 °C 1019.9 hPa Calm     94% 0 mm WeatherDisplay:10.37 W/m2 BKN
23:20 17.9 °C 16.9 °C 1019.9 hPa Calm     94% 0 mm WeatherDisplay:10.37 W/m2 BKN
23:21 17.9 °C 16.9 °C 1019.9 hPa Calm     94% 0 mm WeatherDisplay:10.37 W/m2 BKN
23:24 17.9 °C 16.9 °C 1019.5 hPa Calm     94% 0 mm WeatherDisplay:10.37 W/m2 BKN
23:26 17.9 °C 16.9 °C 1019.9 hPa Calm     94% 0 mm WeatherDisplay:10.37 W/m2 BKN
23:29 17.9 °C 16.9 °C 1019.9 hPa Calm     94% 0 mm WeatherDisplay:10.37 W/m2 BKN
23:35 17.8 °C 16.8 °C 1019.9 hPa Calm     94% 0 mm WeatherDisplay:10.37 W/m2 BKN
23:38 17.8 °C 16.8 °C 1019.9 hPa Calm     94% 0 mm WeatherDisplay:10.37 W/m2 BKN
23:43 17.7 °C 16.7 °C 1019.9 hPa Calm     94% 0 mm WeatherDisplay:10.37 W/m2 BKN
23:48 17.7 °C 16.7 °C 1019.9 hPa Calm     94% 0 mm WeatherDisplay:10.37 W/m2 BKN
23:53 17.7 °C 16.7 °C 1019.9 hPa Calm     94% 0 mm WeatherDisplay:10.37 W/m2 SCT
23:59 17.6 °C 16.6 °C 1019.9 hPa Calm     94% 0 mm WeatherDisplay:10.37 W/m2 SCT
Piedmont Bend
Compliments of Weather Underground - 4 mb